Flight Track Log - Related Links

Times and Time Zones

All times are in EDT time to prevent confusion due to time zone crossing. See the N53NW flight status page for this flight to view local times or setup timezone preferences in your user account.

Time Position Orientation Groundspeed Altitude Reporting Facility
EDT Latitude Longitude Course Direction KTS MPH feet Rate Location/Type
Fri 05:07:41 PM 33.9167 -83.3667 114° Southeast 231 266 3,400  Level Atlanta TRACON
Fri 05:08:47 PM 33.8667 -83.2833 126° Southeast 256 295 4,600 1,750 Climbing Atlanta TRACON
Fri 05:09:41 PM 33.8333 -83.2167 121° Southeast 269 310 6,900 1,200 Climbing Atlanta TRACON
Fri 05:10:47 PM 33.8000 -83.1167 112° Southeast 279 321 7,000 91 Climbing Atlanta TRACON
Fri 05:12:00 PM 33.7907 -83.0136 96° East  Level FlightAware Approximate
Fri 05:13:00 PM 33.7923 -82.9532 114° Southeast  Level Estimated
Fri 05:19:00 PM 33.5842 -82.4634 117° Southeast  Level FlightAware Approximate
Fri 05:20:00 PM 33.5519 -82.3878 117° Southeast  Level FlightAware Approximate
Fri 05:21:00 PM 33.5158 -82.3147 121° Southeast  Level FlightAware Approximate
Fri 05:22:00 PM 33.4793 -82.2419 121° Southeast  Level FlightAware Approximate
Fri 05:23:00 PM 33.4501 -82.1667 121° Southeast  Level FlightAware Approximate
Fri 05:24:00 PM 33.4191 -82.0907 112° Southeast  Level FlightAware Approximate
Fri 05:25:00 PM 33.3917 -82.0125 116° Southeast  Level FlightAware Approximate
Fri 05:26:00 PM 33.3699 -81.9645 116° Southeast  Level Estimated
Fri 05:27:00 PM 33.3699 -81.9645 116° Southeast  Level Estimated
Fri 05:28:00 PM 33.3699 -81.9645 116° Southeast  Level Estimated
Fri 05:29:00 PM 33.3699 -81.9645 116° Southeast  Level Estimated
Fri 05:30:00 PM 33.3699 -81.9645 116° Southeast  Level Estimated
Fri 05:31:00 PM 33.3699 -81.9645 116° Southeast  Level Estimated
Fri 05:32:00 PM 33.3699 -81.9645 116° Southeast  Level Estimated
Fri 05:33:00 PM 33.3699 -81.9645 116° Southeast  Level Estimated
Fri 05:34:00 PM 33.3699 -81.9645 116° Southeast  Level Estimated
Fri 05:35:00 PM 33.3699 -81.9645 116° Southeast  Level Estimated
Fri 05:36:00 PM 33.3699 -81.9645 116° Southeast  Level Estimated

Login

Don't have an account? Register now (free) for customized features, flight alerts, and more!